Time;durP1;ratioP1;P1;durP2;ratioP2;P2;SDS_P1;SDS_P2;PMS_P1;PMS_P2;Temp;Humidity;BMP_temperature;BMP_pressure;BME280_temperature;BME280_humidity;BME280_pressure;Samples;Min_cycle;Max_cycle;Signal;HPM_P1;HPM_P2
2022/08/31 00:04:00;;;;;;;;;;;17.40;99.90;;;;;;5084209;28;19950;-67
2022/08/31 00:06:25;;;;;;;;;;;17.30;99.90;;;;;;5079141;28;19920;-67
2022/08/31 00:08:51;;;;;;;;;;;17.30;99.90;;;;;;5085108;28;19939;-67
2022/08/31 00:11:19;;;;;;;;;;;17.30;99.90;;;;;;5088481;28;19908;-66
2022/08/31 00:13:45;;;;;;;;;;;17.30;99.90;;;;;;5081223;28;19913;-68
2022/08/31 00:16:11;;;;;;;;;;;17.30;99.90;;;;;;5083013;28;19912;-66
2022/08/31 00:18:37;;;;;;;;;;;17.40;99.90;;;;;;5081685;28;20353;-67
2022/08/31 00:21:03;;;;;;;;;;;17.40;99.90;;;;;;5078525;28;19931;-67
2022/08/31 00:23:28;;;;;;;;;;;17.40;99.90;;;;;;5092567;28;19923;-67
2022/08/31 00:25:54;;;;;;;;;;;17.30;99.90;;;;;;5098260;28;19940;-68
2022/08/31 00:28:20;;;;;;;;;;;17.30;99.90;;;;;;5079903;28;19901;-68
2022/08/31 00:30:45;;;;;;;;;;;17.30;99.90;;;;;;5078785;28;19913;-68
2022/08/31 00:33:11;;;;;;;;;;;17.20;99.90;;;;;;5080549;28;19900;-67
2022/08/31 00:35:37;;;;;;;;;;;17.10;99.90;;;;;;5079293;28;19912;-67
2022/08/31 00:38:04;;;;;;;;;;;17.10;99.90;;;;;;5096598;28;19901;-67
2022/08/31 00:40:30;;;;;;;;;;;17.10;99.90;;;;;;5101369;28;19956;-66
2022/08/31 00:42:57;;;;;;;;;;;17.10;99.90;;;;;;5080205;28;19913;-67
2022/08/31 00:45:23;;;;;;;;;;;17.10;99.90;;;;;;5080546;28;19927;-67
2022/08/31 00:47:49;;;;;;;;;;;17.00;99.90;;;;;;5080993;28;19964;-67
2022/08/31 00:50:15;;;;;;;;;;;17.00;99.90;;;;;;5085977;28;19905;-66
2022/08/31 00:52:43;;;;;;;;;;;16.90;99.90;;;;;;5082927;28;19928;-67
2022/08/31 00:55:11;;;;;;;;;;;16.90;99.90;;;;;;5088801;28;19973;-66
2022/08/31 00:57:38;;;;;;;;;;;17.00;99.90;;;;;;5081560;28;19984;-67
2022/08/31 01:00:06;;;;;;;;;;;16.90;99.90;;;;;;5085844;28;19972;-67
2022/08/31 01:02:31;;;;;;;;;;;16.80;99.90;;;;;;5085888;28;19964;-67
2022/08/31 01:04:57;;;;;;;;;;;16.80;99.90;;;;;;5079051;28;19947;-68
2022/08/31 01:07:22;;;;;;;;;;;16.70;99.90;;;;;;5087622;28;19905;-67
2022/08/31 01:09:48;;;;;;;;;;;16.70;99.90;;;;;;5079677;28;19948;-67
2022/08/31 01:12:14;;;;;;;;;;;16.70;99.90;;;;;;5080478;28;19901;-67
2022/08/31 01:14:40;;;;;;;;;;;16.60;99.90;;;;;;5078529;28;19909;-67
2022/08/31 01:17:06;;;;;;;;;;;16.70;99.90;;;;;;5100825;28;19908;-67
2022/08/31 01:19:51;;;;;;;;;;;16.70;99.90;;;;;;5087967;28;19901;-68
2022/08/31 01:22:23;;;;;;;;;;;16.70;99.90;;;;;;5084257;28;19901;-67
2022/08/31 01:24:50;;;;;;;;;;;16.80;99.90;;;;;;5107420;28;19972;-67
2022/08/31 01:27:21;;;;;;;;;;;16.70;99.90;;;;;;5081686;28;19908;-66
2022/08/31 01:29:47;;;;;;;;;;;16.70;99.90;;;;;;5079500;28;19916;-67
2022/08/31 01:32:13;;;;;;;;;;;16.70;99.90;;;;;;5082265;28;19931;-67
2022/08/31 01:34:38;;;;;;;;;;;16.70;99.90;;;;;;5080486;28;19905;-67
2022/08/31 01:37:04;;;;;;;;;;;16.60;99.90;;;;;;5083993;28;19932;-67
2022/08/31 01:39:30;;;;;;;;;;;16.70;99.90;;;;;;5084826;28;19907;-66
2022/08/31 01:41:55;;;;;;;;;;;16.70;99.90;;;;;;5078490;28;19909;-67
2022/08/31 01:44:22;;;;;;;;;;;16.70;99.90;;;;;;5079470;28;19917;-67
2022/08/31 01:46:48;;;;;;;;;;;16.60;99.90;;;;;;5083455;28;19908;-67
2022/08/31 01:49:15;;;;;;;;;;;16.60;99.90;;;;;;5086268;28;19905;-67
2022/08/31 01:51:40;;;;;;;;;;;16.50;99.90;;;;;;5085046;28;19908;-67
2022/08/31 01:54:06;;;;;;;;;;;16.50;99.90;;;;;;5087957;28;19924;-67
2022/08/31 01:56:34;;;;;;;;;;;16.50;99.90;;;;;;5080915;28;19900;-67
2022/08/31 01:58:59;;;;;;;;;;;16.50;99.90;;;;;;5085298;28;19901;-67
2022/08/31 02:01:27;;;;;;;;;;;16.50;99.90;;;;;;5083119;28;19947;-67
2022/08/31 02:03:53;;;;;;;;;;;16.50;99.90;;;;;;5078826;28;19906;-67
2022/08/31 02:06:18;;;;;;;;;;;16.50;99.90;;;;;;5086874;28;19956;-67
2022/08/31 02:08:44;;;;;;;;;;;16.50;99.90;;;;;;5085521;28;19897;-67
2022/08/31 02:11:09;;;;;;;;;;;16.40;99.90;;;;;;5081781;28;19960;-67
2022/08/31 02:13:35;;;;;;;;;;;16.30;99.90;;;;;;5080836;28;19916;-67
2022/08/31 02:16:01;;;;;;;;;;;16.30;99.90;;;;;;5078780;28;19923;-68
2022/08/31 02:18:27;;;;;;;;;;;16.30;99.90;;;;;;5080390;28;19897;-67
2022/08/31 02:20:52;;;;;;;;;;;16.30;99.90;;;;;;5083679;28;19905;-67
2022/08/31 02:23:18;;;;;;;;;;;16.30;99.90;;;;;;5088951;28;19972;-67
2022/08/31 02:25:43;;;;;;;;;;;16.20;99.90;;;;;;5078400;28;19928;-66
2022/08/31 02:28:12;;;;;;;;;;;16.20;99.90;;;;;;5082982;28;19904;-67
2022/08/31 02:30:40;;;;;;;;;;;16.30;99.90;;;;;;5073521;28;19909;-67
2022/08/31 02:33:06;;;;;;;;;;;16.30;99.90;;;;;;5100105;28;19928;-68
2022/08/31 02:35:32;;;;;;;;;;;16.10;99.90;;;;;;5090731;28;19927;-67
2022/08/31 02:37:58;;;;;;;;;;;16.10;99.90;;;;;;5081291;28;19905;-67
2022/08/31 02:40:24;;;;;;;;;;;16.10;99.90;;;;;;5077078;28;19946;-67
2022/08/31 02:42:49;;;;;;;;;;;16.10;99.90;;;;;;5078059;28;19905;-67
2022/08/31 02:45:15;;;;;;;;;;;16.00;99.90;;;;;;5077162;28;19901;-67
2022/08/31 02:47:40;;;;;;;;;;;15.90;99.90;;;;;;5076880;28;19928;-66
2022/08/31 02:50:06;;;;;;;;;;;15.80;99.90;;;;;;5078820;28;20021;-67
2022/08/31 02:52:32;;;;;;;;;;;15.80;99.90;;;;;;5082870;28;20134;-67
2022/08/31 02:54:58;;;;;;;;;;;15.70;99.90;;;;;;5088460;28;19913;-67
2022/08/31 02:57:25;;;;;;;;;;;15.60;99.90;;;;;;5078615;28;20285;-68
2022/08/31 02:59:51;;;;;;;;;;;15.70;99.90;;;;;;5081331;28;19901;-68
2022/08/31 03:02:16;;;;;;;;;;;15.70;99.90;;;;;;5077142;28;19911;-67
2022/08/31 03:04:42;;;;;;;;;;;15.50;99.90;;;;;;5077673;28;19960;-66
2022/08/31 03:07:07;;;;;;;;;;;15.50;99.90;;;;;;5079158;28;19901;-68
2022/08/31 03:09:33;;;;;;;;;;;15.40;99.90;;;;;;5079696;28;19901;-67
2022/08/31 03:11:59;;;;;;;;;;;15.40;99.90;;;;;;5086993;28;19936;-66
2022/08/31 03:14:25;;;;;;;;;;;15.40;99.90;;;;;;5080099;28;19955;-66
2022/08/31 03:16:51;;;;;;;;;;;15.40;99.90;;;;;;5076818;28;19916;-67
2022/08/31 03:19:17;;;;;;;;;;;15.40;99.90;;;;;;5083946;28;19924;-67
2022/08/31 03:21:44;;;;;;;;;;;15.40;99.90;;;;;;5085045;28;19927;-67
2022/08/31 03:24:10;;;;;;;;;;;15.30;99.90;;;;;;5083116;28;19917;-67
2022/08/31 03:26:35;;;;;;;;;;;15.20;99.90;;;;;;5076473;28;19927;-66
2022/08/31 03:29:01;;;;;;;;;;;15.20;99.90;;;;;;5077589;28;19912;-67
2022/08/31 03:31:26;;;;;;;;;;;15.30;99.90;;;;;;5087812;28;19901;-67
2022/08/31 03:33:52;;;;;;;;;;;15.30;99.90;;;;;;5091581;28;19924;-67
2022/08/31 03:36:17;;;;;;;;;;;15.20;99.90;;;;;;5080449;28;19916;-68
2022/08/31 03:38:43;;;;;;;;;;;15.20;99.90;;;;;;5077202;28;19905;-67
2022/08/31 03:41:10;;;;;;;;;;;15.10;99.90;;;;;;5082541;28;19923;-67
2022/08/31 03:43:36;;;;;;;;;;;15.10;99.90;;;;;;5084014;28;19917;-68
2022/08/31 03:46:03;;;;;;;;;;;15.00;99.90;;;;;;5076767;28;19940;-67
2022/08/31 03:48:28;;;;;;;;;;;15.00;99.90;;;;;;5083223;28;19907;-67
2022/08/31 03:50:54;;;;;;;;;;;15.00;99.90;;;;;;5076464;28;19905;-67
2022/08/31 03:53:19;;;;;;;;;;;14.90;99.90;;;;;;5089553;28;19907;-67
2022/08/31 03:55:45;;;;;;;;;;;14.90;99.90;;;;;;5077179;28;19913;-68
2022/08/31 03:58:11;;;;;;;;;;;14.80;99.90;;;;;;5085271;28;19975;-67
2022/08/31 04:00:37;;;;;;;;;;;14.90;99.90;;;;;;5075694;28;19905;-67
2022/08/31 04:03:02;;;;;;;;;;;15.10;99.90;;;;;;5078445;28;19917;-67
2022/08/31 04:05:29;;;;;;;;;;;15.10;99.90;;;;;;5077357;28;19908;-66
2022/08/31 04:07:55;;;;;;;;;;;15.00;99.90;;;;;;5091998;28;19923;-67
2022/08/31 04:10:21;;;;;;;;;;;14.90;99.90;;;;;;5083762;28;19901;-69
2022/08/31 04:12:47;;;;;;;;;;;14.90;99.90;;;;;;5079719;28;19973;-67
2022/08/31 04:15:13;;;;;;;;;;;14.90;99.90;;;;;;5090291;28;19924;-67
2022/08/31 04:17:39;;;;;;;;;;;14.90;99.90;;;;;;5084809;28;19905;-67
2022/08/31 04:20:05;;;;;;;;;;;14.80;99.90;;;;;;5079887;28;19897;-67
2022/08/31 04:22:31;;;;;;;;;;;14.80;99.90;;;;;;5096702;28;19901;-67
2022/08/31 04:24:56;;;;;;;;;;;14.80;99.90;;;;;;5091009;28;19972;-67
2022/08/31 04:27:22;;;;;;;;;;;14.80;99.90;;;;;;5080999;28;19917;-67
2022/08/31 04:29:47;;;;;;;;;;;14.70;99.90;;;;;;5080638;28;19916;-67
2022/08/31 04:32:13;;;;;;;;;;;14.70;99.90;;;;;;5090318;28;19907;-67
2022/08/31 04:34:38;;;;;;;;;;;14.70;99.90;;;;;;5079623;28;19920;-68
2022/08/31 04:37:07;;;;;;;;;;;14.70;99.90;;;;;;5085023;28;19927;-67
2022/08/31 04:39:33;;;;;;;;;;;14.70;99.90;;;;;;5081068;28;19909;-66
2022/08/31 04:41:58;;;;;;;;;;;14.70;99.90;;;;;;5088820;28;19975;-67
2022/08/31 04:44:25;;;;;;;;;;;14.70;99.90;;;;;;5081617;28;19924;-67
2022/08/31 04:46:51;;;;;;;;;;;14.70;99.90;;;;;;5079998;28;19901;-67
2022/08/31 04:49:16;;;;;;;;;;;14.70;99.90;;;;;;5089868;28;19927;-66
2022/08/31 04:51:42;;;;;;;;;;;14.60;99.90;;;;;;5080403;28;19904;-68
2022/08/31 04:54:09;;;;;;;;;;;14.50;99.90;;;;;;5078824;28;19936;-68
2022/08/31 04:56:37;;;;;;;;;;;14.50;99.90;;;;;;5080069;28;19924;-68
2022/08/31 04:59:05;;;;;;;;;;;14.50;99.90;;;;;;5079085;28;19928;-67
2022/08/31 05:01:33;;;;;;;;;;;14.40;99.90;;;;;;5079994;28;19901;-67
2022/08/31 05:03:59;;;;;;;;;;;14.40;99.90;;;;;;5082215;28;19908;-67
2022/08/31 05:06:26;;;;;;;;;;;14.30;99.90;;;;;;5087150;28;19917;-67
2022/08/31 05:08:53;;;;;;;;;;;14.30;99.90;;;;;;5096236;28;19964;-67
2022/08/31 05:11:19;;;;;;;;;;;14.30;99.90;;;;;;5096714;28;19948;-66
2022/08/31 05:13:44;;;;;;;;;;;14.20;99.90;;;;;;5078285;28;19915;-68
2022/08/31 05:16:11;;;;;;;;;;;14.30;99.90;;;;;;5080001;28;19940;-68
2022/08/31 05:18:37;;;;;;;;;;;14.20;99.90;;;;;;5080742;28;19995;-68
2022/08/31 05:21:27;;;;;;;;;;;14.30;99.90;;;;;;5081503;28;19960;-68
2022/08/31 05:23:53;;;;;;;;;;;14.20;99.90;;;;;;5071571;28;19973;-67
2022/08/31 05:26:20;;;;;;;;;;;14.20;99.90;;;;;;5078173;28;19901;-70
2022/08/31 05:28:46;;;;;;;;;;;14.10;99.90;;;;;;5067880;28;19916;-67
2022/08/31 05:31:12;;;;;;;;;;;14.10;99.90;;;;;;5085471;28;19901;-67
2022/08/31 05:33:38;;;;;;;;;;;14.10;99.90;;;;;;5087936;28;19905;-67
2022/08/31 05:36:03;;;;;;;;;;;14.10;99.90;;;;;;5099394;28;19952;-68
2022/08/31 05:38:29;;;;;;;;;;;14.10;99.90;;;;;;5071436;28;20034;-67
2022/08/31 05:40:55;;;;;;;;;;;14.10;99.90;;;;;;5078556;28;19901;-66
2022/08/31 05:43:21;;;;;;;;;;;14.20;99.90;;;;;;5082111;28;19905;-67
2022/08/31 05:45:47;;;;;;;;;;;14.20;99.90;;;;;;5078116;28;19897;-66
2022/08/31 05:48:13;;;;;;;;;;;14.30;99.90;;;;;;5089982;28;19916;-67
2022/08/31 05:50:38;;;;;;;;;;;14.40;99.90;;;;;;5080498;28;19966;-67
2022/08/31 05:53:05;;;;;;;;;;;14.40;99.90;;;;;;5083316;28;19905;-67
2022/08/31 05:55:30;;;;;;;;;;;14.30;99.90;;;;;;5078584;28;19955;-67
2022/08/31 05:57:56;;;;;;;;;;;14.30;99.90;;;;;;5078798;28;19917;-67
2022/08/31 06:00:22;;;;;;;;;;;14.40;99.90;;;;;;5076574;28;20008;-67
2022/08/31 06:02:47;;;;;;;;;;;14.50;99.90;;;;;;5078383;28;19904;-67
2022/08/31 06:05:13;;;;;;;;;;;14.50;99.90;;;;;;5078726;28;19911;-68
2022/08/31 06:07:38;;;;;;;;;;;14.50;99.90;;;;;;5081878;28;19980;-68
2022/08/31 06:10:04;;;;;;;;;;;14.50;99.90;;;;;;5086452;28;19904;-67
2022/08/31 06:12:33;;;;;;;;;;;14.40;99.90;;;;;;5100347;28;19921;-67
2022/08/31 06:15:00;;;;;;;;;;;14.40;99.90;;;;;;5082993;28;19940;-67
2022/08/31 06:17:27;;;;;;;;;;;14.50;99.90;;;;;;5078411;28;19924;-67
2022/08/31 06:19:56;;;;;;;;;;;14.50;99.90;;;;;;5077205;28;19897;-67
2022/08/31 06:22:23;;;;;;;;;;;14.50;99.90;;;;;;5088847;28;19912;-68
2022/08/31 06:24:48;;;;;;;;;;;14.60;99.90;;;;;;5080515;28;19919;-67
2022/08/31 06:27:14;;;;;;;;;;;14.60;99.90;;;;;;5083187;28;19908;-67
2022/08/31 06:29:40;;;;;;;;;;;14.70;99.90;;;;;;5102793;28;19915;-67
2022/08/31 06:32:12;;;;;;;;;;;14.80;99.90;;;;;;5077871;28;19904;-68
2022/08/31 06:34:39;;;;;;;;;;;14.80;99.90;;;;;;5076123;28;19955;-68
2022/08/31 06:37:08;;;;;;;;;;;14.60;99.90;;;;;;5077477;28;19913;-67
2022/08/31 06:39:33;;;;;;;;;;;14.60;99.90;;;;;;5076517;28;19947;-67
2022/08/31 06:41:59;;;;;;;;;;;14.80;99.90;;;;;;5085111;28;19909;-67
2022/08/31 06:44:25;;;;;;;;;;;14.80;99.90;;;;;;5089013;28;19926;-68
2022/08/31 06:46:50;;;;;;;;;;;14.70;99.90;;;;;;5076438;28;19904;-67
2022/08/31 06:49:16;;;;;;;;;;;14.80;99.90;;;;;;5082668;28;20012;-67
2022/08/31 06:51:42;;;;;;;;;;;14.80;99.90;;;;;;5076854;28;19904;-67
2022/08/31 06:54:08;;;;;;;;;;;14.90;99.90;;;;;;5076853;28;19932;-66
2022/08/31 06:56:34;;;;;;;;;;;15.00;99.90;;;;;;5077976;28;19944;-68
2022/08/31 06:59:00;;;;;;;;;;;15.00;99.90;;;;;;5081751;28;19900;-68
2022/08/31 07:01:27;;;;;;;;;;;15.10;99.90;;;;;;5087228;28;19963;-67
2022/08/31 07:03:54;;;;;;;;;;;15.20;99.90;;;;;;5077305;28;19912;-67
2022/08/31 07:06:21;;;;;;;;;;;15.40;99.90;;;;;;5080764;28;19901;-68
2022/08/31 07:08:51;;;;;;;;;;;15.50;99.90;;;;;;5076569;28;19905;-68
2022/08/31 07:11:19;;;;;;;;;;;15.50;99.90;;;;;;5076753;28;19921;-69
2022/08/31 07:13:45;;;;;;;;;;;15.50;99.90;;;;;;5095041;28;19935;-67
2022/08/31 07:16:12;;;;;;;;;;;15.60;99.90;;;;;;5078434;28;19940;-67
2022/08/31 07:18:38;;;;;;;;;;;15.70;99.90;;;;;;5085112;28;19901;-68
2022/08/31 07:21:05;;;;;;;;;;;15.80;99.90;;;;;;5088774;28;19916;-68
2022/08/31 07:23:31;;;;;;;;;;;15.80;99.90;;;;;;5076611;28;19961;-68
2022/08/31 07:25:57;;;;;;;;;;;16.00;99.90;;;;;;5083329;28;19905;-69
2022/08/31 07:28:23;;;;;;;;;;;16.20;99.90;;;;;;5085471;28;19917;-68
2022/08/31 07:30:49;;;;;;;;;;;16.40;99.90;;;;;;5079461;28;19905;-68
2022/08/31 07:33:15;;;;;;;;;;;16.50;99.90;;;;;;5078750;28;19923;-68
2022/08/31 07:35:41;;;;;;;;;;;16.60;99.90;;;;;;5076663;28;19935;-68
2022/08/31 07:43:35;;;;;;;;;;;16.80;99.90;;;;;;5080633;28;19920;-68
2022/08/31 07:46:01;;;;;;;;;;;16.90;99.90;;;;;;5080641;28;19904;-67
2022/08/31 07:48:26;;;;;;;;;;;16.90;99.90;;;;;;5086224;28;19943;-68
2022/08/31 07:50:53;;;;;;;;;;;17.00;99.90;;;;;;5090049;28;19986;-68
2022/08/31 07:53:19;;;;;;;;;;;17.10;99.90;;;;;;5079733;28;19905;-67
2022/08/31 07:55:46;;;;;;;;;;;17.20;99.90;;;;;;5078924;28;19987;-68
2022/08/31 07:58:14;;;;;;;;;;;17.40;99.90;;;;;;5080247;28;19901;-68
2022/08/31 08:00:42;;;;;;;;;;;17.40;99.90;;;;;;5086170;28;20070;-67
2022/08/31 08:03:11;;;;;;;;;;;17.60;99.90;;;;;;5079148;28;19905;-67
2022/08/31 08:05:40;;;;;;;;;;;17.80;99.90;;;;;;5088760;28;19953;-68
2022/08/31 08:08:07;;;;;;;;;;;17.90;99.90;;;;;;5081410;28;19985;-69
2022/08/31 08:10:33;;;;;;;;;;;18.20;99.90;;;;;;5078536;28;19905;-68
2022/08/31 08:13:02;;;;;;;;;;;18.30;99.90;;;;;;5084580;28;19920;-66
2022/08/31 08:15:29;;;;;;;;;;;18.50;99.90;;;;;;5080078;28;19912;-68
2022/08/31 08:17:54;;;;;;;;;;;18.70;99.90;;;;;;5096685;28;19901;-68
2022/08/31 08:20:20;;;;;;;;;;;18.80;99.90;;;;;;5081158;28;19916;-67
2022/08/31 08:22:46;;;;;;;;;;;18.60;99.90;;;;;;5087682;28;19904;-67
2022/08/31 08:25:12;;;;;;;;;;;18.70;99.90;;;;;;5091894;28;19972;-68
2022/08/31 08:27:38;;;;;;;;;;;18.70;99.90;;;;;;5077724;28;19945;-67
2022/08/31 08:30:05;;;;;;;;;;;18.70;99.90;;;;;;5095259;28;19965;-68
2022/08/31 08:32:30;;;;;;;;;;;18.70;99.90;;;;;;5078271;28;19920;-68
2022/08/31 08:34:56;;;;;;;;;;;18.90;99.90;;;;;;5082155;28;19942;-68
2022/08/31 08:37:22;;;;;;;;;;;18.70;99.90;;;;;;5086026;28;19905;-68
2022/08/31 08:39:48;;;;;;;;;;;18.70;99.90;;;;;;5079182;28;20046;-68
2022/08/31 08:42:15;;;;;;;;;;;18.70;99.90;;;;;;5084049;28;19954;-68
2022/08/31 08:44:41;;;;;;;;;;;18.70;99.90;;;;;;5093713;28;19905;-67
2022/08/31 08:47:14;;;;;;;;;;;18.60;99.90;;;;;;5089263;28;19981;-68
2022/08/31 08:49:44;;;;;;;;;;;18.80;99.90;;;;;;5081548;28;19920;-68
2022/08/31 08:52:21;;;;;;;;;;;18.90;99.90;;;;;;5085006;28;19976;-68
2022/08/31 08:54:48;;;;;;;;;;;19.00;99.90;;;;;;5094517;28;19913;-68
2022/08/31 08:57:15;;;;;;;;;;;19.10;99.90;;;;;;5081117;28;19905;-68
2022/08/31 08:59:45;;;;;;;;;;;19.00;99.90;;;;;;5104902;28;19904;-69
2022/08/31 09:02:18;;;;;;;;;;;19.00;99.90;;;;;;5079033;28;19912;-67
2022/08/31 09:04:59;;;;;;;;;;;19.10;99.90;;;;;;5087990;28;19905;-68
2022/08/31 09:07:29;;;;;;;;;;;19.20;99.90;;;;;;5091093;28;19964;-69
2022/08/31 09:10:13;;;;;;;;;;;19.20;99.90;;;;;;5082144;28;19915;-67
2022/08/31 09:12:50;;;;;;;;;;;19.40;99.90;;;;;;5084269;28;19992;-67
2022/08/31 09:15:16;;;;;;;;;;;19.70;99.90;;;;;;5088015;28;19908;-68
2022/08/31 09:17:49;;;;;;;;;;;19.60;99.90;;;;;;5076827;28;19904;-67
2022/08/31 09:20:15;;;;;;;;;;;19.80;99.90;;;;;;5081347;28;19900;-68
2022/08/31 09:22:47;;;;;;;;;;;19.90;99.90;;;;;;5082441;28;19904;-68
2022/08/31 09:25:14;;;;;;;;;;;20.00;99.90;;;;;;5083338;28;19908;-68
2022/08/31 09:27:46;;;;;;;;;;;20.10;99.90;;;;;;5086944;28;19978;-68
2022/08/31 09:30:30;;;;;;;;;;;20.00;99.90;;;;;;5077627;28;20006;-67
2022/08/31 09:32:56;;;;;;;;;;;20.00;99.90;;;;;;5079386;28;19916;-67
2022/08/31 09:35:24;;;;;;;;;;;20.10;99.90;;;;;;5082932;28;19905;-68
2022/08/31 09:37:57;;;;;;;;;;;20.30;99.90;;;;;;5088671;28;19909;-68
2022/08/31 09:40:35;;;;;;;;;;;20.20;99.90;;;;;;5077506;28;19901;-67
2022/08/31 09:43:02;;;;;;;;;;;20.20;99.90;;;;;;5098961;28;19909;-68
2022/08/31 09:45:34;;;;;;;;;;;20.20;99.90;;;;;;5081973;28;19901;-68
2022/08/31 09:48:00;;;;;;;;;;;20.00;99.90;;;;;;5081089;28;19905;-69
2022/08/31 09:50:43;;;;;;;;;;;20.10;99.90;;;;;;5087525;28;19901;-69
2022/08/31 09:56:15;;;;;;;;;;;20.30;99.90;;;;;;5081115;28;19919;-68
2022/08/31 09:58:42;;;;;;;;;;;20.60;99.90;;;;;;5077495;28;19905;-68
2022/08/31 10:01:12;;;;;;;;;;;20.80;98.00;;;;;;5075557;28;19944;-69
2022/08/31 10:03:43;;;;;;;;;;;20.70;97.30;;;;;;5080031;28;19901;-68
2022/08/31 10:06:24;;;;;;;;;;;20.70;95.40;;;;;;5076343;28;19964;-67
2022/08/31 10:08:56;;;;;;;;;;;20.50;94.10;;;;;;5085194;28;19900;-68
2022/08/31 10:11:23;;;;;;;;;;;20.40;95.00;;;;;;5081354;28;19905;-68
2022/08/31 10:13:55;;;;;;;;;;;20.40;94.80;;;;;;5078242;28;19909;-69
2022/08/31 10:16:29;;;;;;;;;;;20.50;94.30;;;;;;5085074;28;19908;-68
2022/08/31 10:19:03;;;;;;;;;;;20.50;93.00;;;;;;5079033;28;20015;-68
2022/08/31 10:21:37;;;;;;;;;;;20.40;93.00;;;;;;5080023;28;19904;-68
2022/08/31 10:24:19;;;;;;;;;;;20.40;94.00;;;;;;5091104;28;19921;-68
2022/08/31 10:27:02;;;;;;;;;;;20.40;94.00;;;;;;5076604;28;19905;-68
2022/08/31 10:29:32;;;;;;;;;;;20.20;95.00;;;;;;5073971;28;19905;-68
2022/08/31 10:32:00;;;;;;;;;;;20.30;94.50;;;;;;5077597;28;19904;-68
2022/08/31 10:37:23;;;;;;;;;;;20.60;93.60;;;;;;5080967;28;19912;-68
2022/08/31 10:39:52;;;;;;;;;;;20.80;93.20;;;;;;5088892;28;19912;-67
2022/08/31 10:42:23;;;;;;;;;;;21.00;91.30;;;;;;5080574;28;19955;-68
2022/08/31 10:44:56;;;;;;;;;;;21.30;89.50;;;;;;5085179;28;19931;-68
2022/08/31 10:47:27;;;;;;;;;;;21.60;85.70;;;;;;5085612;28;19900;-68
2022/08/31 10:49:54;;;;;;;;;;;21.80;86.20;;;;;;5081585;28;19968;-68
2022/08/31 10:52:32;;;;;;;;;;;21.90;81.00;;;;;;5074051;28;19904;-68
2022/08/31 10:55:22;;;;;;;;;;;21.90;80.40;;;;;;5094471;28;19992;-68
2022/08/31 10:57:48;;;;;;;;;;;21.70;80.60;;;;;;5064005;28;19905;-68
2022/08/31 11:00:40;;;;;;;;;;;21.70;79.90;;;;;;5090697;28;19933;-68
2022/08/31 11:02:59;;;;;;;;;;;21.70;79.40;;;;;;5079228;28;19921;-69
2022/08/31 11:05:43;;;;;;;;;;;21.90;79.50;;;;;;5085729;28;19920;-68
2022/08/31 11:08:11;;;;;;;;;;;22.00;78.10;;;;;;5105406;28;19920;-69
2022/08/31 11:10:41;;;;;;;;;;;22.10;77.70;;;;;;5072621;28;19931;-68
2022/08/31 11:13:15;;;;;;;;;;;22.30;76.90;;;;;;5106931;28;19913;-67
2022/08/31 11:15:42;;;;;;;;;;;22.70;75.00;;;;;;5075395;28;19955;-68
2022/08/31 11:18:40;;;;;;;;;;;22.40;75.80;;;;;;5084155;28;19920;-69
2022/08/31 11:21:18;;;;;;;;;;;22.60;74.60;;;;;;5041287;28;19901;-68
2022/08/31 11:23:55;;;;;;;;;;;22.50;73.80;;;;;;5064931;28;20014;-68
2022/08/31 11:26:42;;;;;;;;;;;22.60;73.80;;;;;;5073082;28;19960;-68
2022/08/31 11:29:12;;;;;;;;;;;22.50;72.70;;;;;;5078168;28;20042;-67
2022/08/31 11:31:39;;;;;;;;;;;22.50;73.30;;;;;;5097524;28;19940;-68
2022/08/31 11:34:11;;;;;;;;;;;22.70;72.10;;;;;;5078700;28;19950;-69
2022/08/31 11:36:51;;;;;;;;;;;22.70;71.60;;;;;;5084775;28;19945;-68
2022/08/31 11:39:17;;;;;;;;;;;23.00;71.80;;;;;;5061552;28;20197;-68
2022/08/31 11:41:46;;;;;;;;;;;23.20;70.80;;;;;;5097977;28;19952;-68
2022/08/31 11:44:38;;;;;;;;;;;23.10;69.60;;;;;;5078300;28;19984;-69
2022/08/31 11:47:06;;;;;;;;;;;22.90;69.90;;;;;;5075012;28;19972;-68
2022/08/31 11:49:35;;;;;;;;;;;22.80;68.90;;;;;;5087831;28;19904;-67
2022/08/31 11:52:04;;;;;;;;;;;22.60;69.80;;;;;;5075757;28;19973;-68
2022/08/31 11:54:36;;;;;;;;;;;22.60;70.80;;;;;;5080562;28;19913;-69
2022/08/31 11:57:04;;;;;;;;;;;22.50;70.00;;;;;;5097928;28;19905;-68
2022/08/31 11:59:36;;;;;;;;;;;22.40;70.70;;;;;;5077209;28;19905;-68
2022/08/31 12:02:33;;;;;;;;;;;22.60;71.90;;;;;;5075601;28;19909;-68
2022/08/31 12:05:01;;;;;;;;;;;22.90;69.80;;;;;;5069994;28;19972;-67
2022/08/31 12:07:30;;;;;;;;;;;23.00;69.30;;;;;;5076680;28;19912;-68
2022/08/31 12:10:12;;;;;;;;;;;23.00;67.40;;;;;;5091610;28;19904;-68
2022/08/31 12:12:55;;;;;;;;;;;23.00;66.90;;;;;;5088539;28;19904;-68
2022/08/31 12:15:27;;;;;;;;;;;22.80;67.60;;;;;;5075785;28;19967;-69
2022/08/31 12:17:55;;;;;;;;;;;22.90;67.90;;;;;;5072146;28;19905;-67
2022/08/31 12:20:27;;;;;;;;;;;23.10;65.90;;;;;;5087775;28;19908;-68
2022/08/31 12:26:01;;;;;;;;;;;23.40;66.50;;;;;;5074156;28;19927;-67
2022/08/31 12:28:27;;;;;;;;;;;23.50;64.90;;;;;;5078690;28;19915;-68
2022/08/31 12:30:53;;;;;;;;;;;23.50;63.80;;;;;;5079086;28;19905;-68
2022/08/31 12:33:26;;;;;;;;;;;23.40;63.90;;;;;;5082795;28;19904;-68
2022/08/31 12:35:53;;;;;;;;;;;23.20;65.00;;;;;;5083244;28;19912;-69
2022/08/31 12:38:19;;;;;;;;;;;23.10;62.40;;;;;;5079103;28;19901;-68
2022/08/31 12:40:55;;;;;;;;;;;23.10;62.50;;;;;;5081789;28;19913;-68
2022/08/31 12:43:30;;;;;;;;;;;23.30;63.30;;;;;;5078265;28;19912;-68
2022/08/31 12:45:55;;;;;;;;;;;23.60;62.00;;;;;;5085446;28;19910;-67
2022/08/31 12:48:39;;;;;;;;;;;23.60;62.40;;;;;;5090346;28;19945;-68
2022/08/31 12:51:13;;;;;;;;;;;23.60;63.70;;;;;;5078623;28;19904;-69
2022/08/31 12:53:47;;;;;;;;;;;23.40;62.10;;;;;;5084423;28;19988;-69
2022/08/31 12:56:36;;;;;;;;;;;23.20;62.50;;;;;;5103385;28;19913;-69
2022/08/31 12:59:21;;;;;;;;;;;23.20;62.10;;;;;;5078098;28;19916;-67
2022/08/31 13:01:48;;;;;;;;;;;23.30;60.80;;;;;;5084840;28;19917;-68
2022/08/31 13:04:14;;;;;;;;;;;23.20;61.70;;;;;;5084813;28;19905;-68
2022/08/31 13:06:43;;;;;;;;;;;23.40;59.60;;;;;;5080599;28;19964;-69
2022/08/31 13:09:27;;;;;;;;;;;23.60;58.60;;;;;;5077993;28;19915;-68
2022/08/31 13:11:54;;;;;;;;;;;23.50;58.70;;;;;;5080645;28;19955;-69
2022/08/31 13:14:23;;;;;;;;;;;23.70;58.40;;;;;;5075287;28;19940;-68
2022/08/31 13:16:50;;;;;;;;;;;23.80;58.80;;;;;;5096837;28;19901;-70
2022/08/31 13:19:28;;;;;;;;;;;23.80;58.70;;;;;;5083759;28;20251;-69
2022/08/31 13:22:03;;;;;;;;;;;23.90;58.00;;;;;;5079032;28;19905;-68
2022/08/31 13:24:31;;;;;;;;;;;23.80;57.80;;;;;;5082102;28;19984;-68
2022/08/31 13:27:03;;;;;;;;;;;23.70;58.30;;;;;;5077338;28;19930;-69
2022/08/31 13:29:28;;;;;;;;;;;23.80;58.00;;;;;;5084727;28;19904;-68
2022/08/31 13:31:54;;;;;;;;;;;23.90;57.60;;;;;;5082244;28;19911;-68
2022/08/31 13:34:20;;;;;;;;;;;24.00;58.30;;;;;;5077318;28;19909;-68
2022/08/31 13:36:47;;;;;;;;;;;24.00;57.90;;;;;;5078894;28;19931;-68
2022/08/31 13:39:19;;;;;;;;;;;23.80;58.60;;;;;;5077064;28;19905;-68
2022/08/31 13:41:57;;;;;;;;;;;23.80;58.90;;;;;;5077046;28;19932;-69
2022/08/31 13:44:36;;;;;;;;;;;23.60;59.20;;;;;;5081730;28;19916;-69
2022/08/31 13:47:04;;;;;;;;;;;23.70;59.20;;;;;;5084711;28;19905;-69
2022/08/31 13:49:34;;;;;;;;;;;23.80;58.30;;;;;;5082877;28;19984;-68
2022/08/31 13:52:04;;;;;;;;;;;23.90;58.70;;;;;;5080282;28;19911;-68
2022/08/31 13:54:31;;;;;;;;;;;23.90;58.80;;;;;;5081272;28;19930;-68
2022/08/31 13:57:18;;;;;;;;;;;23.80;58.40;;;;;;5081228;28;19916;-68
2022/08/31 13:59:44;;;;;;;;;;;23.90;57.90;;;;;;5079522;28;19904;-69
2022/08/31 14:02:18;;;;;;;;;;;23.90;59.00;;;;;;5078256;28;19981;-68
2022/08/31 14:04:47;;;;;;;;;;;24.10;57.80;;;;;;5082863;28;19972;-68
2022/08/31 14:07:28;;;;;;;;;;;24.10;56.80;;;;;;5083328;28;19972;-68
2022/08/31 14:10:13;;;;;;;;;;;23.90;58.20;;;;;;5077759;28;19904;-68
2022/08/31 14:12:45;;;;;;;;;;;24.20;56.90;;;;;;5080617;28;19904;-68
2022/08/31 14:15:16;;;;;;;;;;;24.30;56.50;;;;;;5085279;28;19980;-67
2022/08/31 14:17:43;;;;;;;;;;;24.40;56.30;;;;;;5104863;28;19976;-68
2022/08/31 14:20:32;;;;;;;;;;;24.50;55.50;;;;;;5080793;28;19905;-68
2022/08/31 14:23:17;;;;;;;;;;;24.40;54.70;;;;;;5085174;28;19987;-67
2022/08/31 14:25:42;;;;;;;;;;;24.20;54.60;;;;;;5082342;28;20343;-67
2022/08/31 14:28:08;;;;;;;;;;;24.30;54.30;;;;;;5082310;28;19904;-67
2022/08/31 14:30:34;;;;;;;;;;;24.10;55.10;;;;;;5082762;28;19932;-68
2022/08/31 14:33:02;;;;;;;;;;;24.20;55.60;;;;;;5076060;28;19919;-68
2022/08/31 14:35:27;;;;;;;;;;;24.40;54.20;;;;;;5082804;28;19921;-68
2022/08/31 14:37:53;;;;;;;;;;;24.60;54.40;;;;;;5085757;28;19904;-69
2022/08/31 14:40:19;;;;;;;;;;;25.00;54.00;;;;;;5075918;28;19924;-69
2022/08/31 14:42:45;;;;;;;;;;;25.00;53.10;;;;;;5080955;28;19916;-68